Time;durP1;ratioP1;P1;durP2;ratioP2;P2;SDS_P1;SDS_P2;PMS_P1;PMS_P2;Temp;Humidity;BMP_temperature;BMP_pressure;BME280_temperature;BME280_humidity;BME280_pressure;Samples;Min_cycle;Max_cycle;Signal;HPM_P1;HPM_P2
2021/08/29 00:02:18;;;;;;;2.10;2.00;;;;;;;14.10;89.30;95679.31;4991865;28;20200;-84
2021/08/29 00:05:02;;;;;;;2.13;2.03;;;;;;;14.08;89.04;95676.13;4992395;28;20234;-82
2021/08/29 00:07:33;;;;;;;3.37;2.27;;;;;;;14.09;88.65;95675.13;4993280;28;20238;-84
2021/08/29 00:10:03;;;;;;;2.07;1.97;;;;;;;14.07;89.13;95672.75;4992013;28;20216;-84
2021/08/29 00:12:44;;;;;;;2.20;2.10;;;;;;;14.06;89.19;95681.50;4995466;28;20199;-84
2021/08/29 00:15:16;;;;;;;2.27;2.10;;;;;;;14.00;88.61;95678.91;5012510;28;20207;-83
2021/08/29 00:17:47;;;;;;;2.20;2.00;;;;;;;14.00;89.00;95677.13;5013095;28;20222;-84
2021/08/29 00:20:19;;;;;;;2.23;2.10;;;;;;;13.98;88.90;95678.31;5011691;28;20227;-83
2021/08/29 00:22:47;;;;;;;2.23;1.90;;;;;;;14.00;88.93;95678.91;5012006;28;20206;-84
2021/08/29 00:25:30;;;;;;;2.30;2.10;;;;;;;14.03;88.85;95679.31;5009265;28;20210;-83
2021/08/29 00:27:59;;;;;;;2.13;1.90;;;;;;;13.97;88.84;95677.50;5012204;28;20280;-84
2021/08/29 00:30:47;;;;;;;2.23;2.03;;;;;;;14.01;88.60;95675.34;5015104;28;20219;-83
2021/08/29 00:33:39;;;;;;;;;;;;;;;;;;;;;
2021/08/29 00:36:10;;;;;;;4.07;2.10;;;;;;;14.01;88.02;95683.09;5008917;28;20661;-83
2021/08/29 00:39:01;;;;;;;2.33;2.13;;;;;;;13.99;87.92;95682.50;5016255;28;20825;-84
2021/08/29 00:41:56;;;;;;;2.27;2.00;;;;;;;13.98;88.11;95676.53;5016506;28;20227;-84
2021/08/29 00:44:32;;;;;;;2.27;2.13;;;;;;;13.99;88.08;95666.97;5002166;28;20242;-83
2021/08/29 00:47:09;;;;;;;2.37;1.97;;;;;;;13.95;87.83;95676.09;5015841;28;20198;-85
2021/08/29 00:49:45;;;;;;;5.83;2.87;;;;;;;13.92;88.13;95679.88;5015978;28;20225;-83
2021/08/29 00:52:44;;;;;;;3.20;1.60;;;;;;;13.93;87.92;95667.72;5015074;28;20233;-84
2021/08/29 00:58:13;;;;;;;2.17;2.00;;;;;;;13.90;87.85;95670.72;4954557;29;20208;-84
2021/08/29 01:01:02;;;;;;;1.97;1.83;;;;;;;13.93;88.22;95667.72;5002169;28;20281;-84
2021/08/29 01:06:44;;;;;;;2.03;1.93;;;;;;;13.91;87.77;95670.50;5015409;28;20253;-84
2021/08/29 01:09:32;;;;;;;2.30;2.10;;;;;;;13.89;88.08;95669.91;5015673;28;20253;-84
2021/08/29 01:12:11;;;;;;;2.20;2.03;;;;;;;13.94;87.96;95672.72;5015331;28;20237;-84
2021/08/29 01:15:07;;;;;;;2.30;2.10;;;;;;;13.94;88.04;95674.50;5015476;28;20203;-84
2021/08/29 01:17:57;;;;;;;2.30;2.10;;;;;;;13.92;87.37;95666.94;5004790;28;20210;-83
2021/08/29 01:20:42;;;;;;;1.93;1.83;;;;;;;13.95;87.36;95668.34;5003272;28;20231;-84
2021/08/29 01:23:16;;;;;;;1.90;1.80;;;;;;;13.87;88.18;95658.16;5015805;28;20209;-84
2021/08/29 01:25:53;;;;;;;1.90;1.80;;;;;;;13.92;87.68;95664.34;5016008;28;20214;-83
2021/08/29 01:28:52;;;;;;;1.97;1.70;;;;;;;13.90;87.67;95668.91;5015528;28;20225;-83
2021/08/29 01:34:32;;;;;;;2.10;2.00;;;;;;;13.91;87.45;95672.31;5013161;28;20202;-84
2021/08/29 01:37:01;;;;;;;4.33;2.10;;;;;;;13.92;87.22;95664.34;5015012;28;20281;-83
2021/08/29 01:39:35;;;;;;;1.80;1.70;;;;;;;13.92;87.23;95668.72;5014411;28;20203;-84
2021/08/29 01:42:09;;;;;;;2.03;1.90;;;;;;;13.88;87.49;95668.31;5015386;28;20227;-84
2021/08/29 01:44:56;;;;;;;2.07;1.80;;;;;;;13.87;88.07;95658.94;5015315;28;20551;-85
2021/08/29 01:47:47;;;;;;;2.63;1.70;;;;;;;13.83;88.09;95653.38;5014851;28;20274;-83
2021/08/29 01:50:25;;;;;;;2.40;1.60;;;;;;;13.82;87.75;95659.56;5007091;28;20226;-84
2021/08/29 01:52:59;;;;;;;1.90;1.80;;;;;;;13.85;87.94;95660.97;5014666;28;20210;-83
2021/08/29 01:55:27;;;;;;;2.40;1.70;;;;;;;13.86;87.31;95647.00;5015252;28;20206;-84
2021/08/29 01:57:57;;;;;;;1.60;1.50;;;;;;;13.82;88.22;95653.59;5015326;28;20221;-83
2021/08/29 02:01:07;;;;;;;1.50;1.40;;;;;;;13.78;87.79;95649.78;5014770;28;20233;-84
2021/08/29 02:03:39;;;;;;;1.70;1.60;;;;;;;13.76;87.85;95641.41;5016034;28;20207;-83
2021/08/29 02:06:26;;;;;;;1.80;1.70;;;;;;;13.69;88.03;95645.75;5015720;28;20203;-85
2021/08/29 02:11:51;;;;;;;2.33;1.57;;;;;;;13.62;88.90;95643.16;5014286;28;20208;-83
2021/08/29 02:14:39;;;;;;;3.33;1.57;;;;;;;13.60;88.72;95639.97;5015219;28;20298;-83
2021/08/29 02:17:26;;;;;;;2.40;1.43;;;;;;;13.57;88.72;95634.38;5015061;28;20206;-83
2021/08/29 02:20:08;;;;;;;1.70;1.60;;;;;;;13.55;88.80;95631.97;5015155;28;20238;-84
2021/08/29 02:22:41;;;;;;;1.70;1.60;;;;;;;13.55;89.28;95634.56;5014127;28;20226;-84
2021/08/29 02:25:09;;;;;;;1.70;1.60;;;;;;;13.58;89.03;95641.16;5014150;28;20213;-84
2021/08/29 02:27:41;;;;;;;1.60;1.50;;;;;;;13.59;88.69;95640.97;5013359;28;20195;-84
2021/08/29 02:30:12;;;;;;;1.60;1.50;;;;;;;13.63;88.52;95639.59;5013053;28;20226;-83
2021/08/29 02:32:42;;;;;;;1.57;1.47;;;;;;;13.65;88.90;95642.78;5013548;28;20670;-83
2021/08/29 02:35:12;;;;;;;1.93;1.60;;;;;;;13.69;88.53;95638.00;5014175;28;20226;-83
2021/08/29 02:37:49;;;;;;;1.60;1.50;;;;;;;13.66;88.30;95643.56;5014157;28;20234;-83
2021/08/29 02:40:25;;;;;;;1.80;1.70;;;;;;;13.64;88.65;95640.38;5013546;28;20226;-84
2021/08/29 02:42:51;;;;;;;1.80;1.70;;;;;;;13.60;89.09;95637.38;5014090;28;20202;-84
2021/08/29 02:45:22;;;;;;;3.47;1.80;;;;;;;13.64;88.85;95637.78;5014220;28;20290;-85
2021/08/29 02:47:57;;;;;;;2.80;1.77;;;;;;;13.68;88.64;95632.00;5011758;28;20211;-84
2021/08/29 02:50:26;;;;;;;2.67;2.00;;;;;;;13.66;89.13;95628.06;4985144;28;20734;-82
2021/08/29 02:52:53;;;;;;;1.70;1.60;;;;;;;13.66;88.49;95630.63;4993032;28;20211;-84
2021/08/29 02:55:25;;;;;;;2.27;1.67;;;;;;;13.70;88.81;95619.69;4993202;28;20270;-84
2021/08/29 02:58:06;;;;;;;2.00;1.90;;;;;;;13.73;88.59;95626.25;4993626;28;20214;-84
2021/08/29 03:00:35;;;;;;;2.10;1.90;;;;;;;13.71;88.94;95626.47;5012149;28;20317;-84
2021/08/29 03:03:04;;;;;;;2.27;1.73;;;;;;;13.70;88.90;95630.03;5012650;28;20207;-83
2021/08/29 03:05:31;;;;;;;2.37;2.00;;;;;;;13.69;89.09;95635.41;5013566;28;20214;-83
2021/08/29 03:07:58;;;;;;;3.37;2.03;;;;;;;13.67;89.30;95629.63;5013320;28;20195;-84
2021/08/29 03:10:28;;;;;;;2.10;1.90;;;;;;;13.70;89.36;95630.03;5012303;28;20321;-83
2021/08/29 03:12:56;;;;;;;2.40;1.67;;;;;;;13.74;89.21;95620.09;5012420;28;20794;-84
2021/08/29 03:15:26;;;;;;;2.93;2.10;;;;;;;13.77;89.01;95624.91;5012540;28;20210;-84
2021/08/29 03:17:52;;;;;;;3.60;2.40;;;;;;;13.74;89.38;95620.91;5011815;28;20210;-84
2021/08/29 03:20:20;;;;;;;2.90;2.20;;;;;;;13.73;89.78;95615.91;5012697;28;20301;-83
2021/08/29 03:22:50;;;;;;;4.57;2.13;;;;;;;13.75;89.92;95613.94;5012691;28;20301;-84
2021/08/29 03:25:21;;;;;;;2.47;2.27;;;;;;;13.73;89.74;95608.94;5013528;28;20657;-84
2021/08/29 03:27:48;;;;;;;2.40;2.20;;;;;;;13.69;90.31;95610.31;5012664;28;20257;-84
2021/08/29 03:30:15;;;;;;;2.63;2.13;;;;;;;13.69;90.16;95607.75;5012433;28;20211;-83
2021/08/29 03:32:43;;;;;;;2.60;2.40;;;;;;;13.68;90.56;95603.56;5012644;28;20290;-83
2021/08/29 03:35:15;;;;;;;2.80;2.50;;;;;;;13.73;90.03;95611.53;5012633;28;20234;-83
2021/08/29 03:37:56;;;;;;;2.50;2.30;;;;;;;13.74;90.16;95615.72;5012653;28;20658;-84
2021/08/29 03:40:27;;;;;;;3.03;2.73;;;;;;;13.76;90.46;95610.34;5012286;28;20793;-83
2021/08/29 03:43:01;;;;;;;3.10;2.60;;;;;;;13.78;90.07;95610.97;5012584;28;20288;-83
2021/08/29 03:45:28;;;;;;;2.77;2.57;;;;;;;13.75;90.09;95614.72;5011929;28;20201;-83
2021/08/29 03:47:59;;;;;;;3.03;2.83;;;;;;;13.76;90.23;95610.34;5012303;28;20662;-83
2021/08/29 03:50:30;;;;;;;4.40;2.63;;;;;;;13.79;90.29;95607.38;4992836;28;20249;-82
2021/08/29 03:53:05;;;;;;;3.40;3.10;;;;;;;13.79;90.39;95600.41;4994426;28;20715;-83
2021/08/29 03:55:32;;;;;;;2.70;2.50;;;;;;;13.83;89.79;95596.44;4993944;28;20234;-83
2021/08/29 03:57:59;;;;;;;3.10;2.80;;;;;;;13.87;89.95;95602.00;4995453;28;20214;-84
2021/08/29 04:00:28;;;;;;;3.10;2.90;;;;;;;13.88;90.60;95601.00;5012904;28;20226;-83
2021/08/29 04:02:55;;;;;;;3.67;3.10;;;;;;;13.88;90.40;95595.84;5013724;28;20218;-83
2021/08/29 04:05:32;;;;;;;3.53;3.10;;;;;;;13.87;90.22;95591.66;5016557;28;20593;-82
2021/08/29 04:08:01;;;;;;;4.47;3.17;;;;;;;13.84;90.26;95586.91;5015716;28;20202;-85
2021/08/29 04:10:31;;;;;;;3.40;3.10;;;;;;;13.85;90.68;95590.28;5015468;28;20230;-83
2021/08/29 04:12:58;;;;;;;3.60;3.30;;;;;;;13.84;90.88;95584.31;5015927;28;20848;-84
2021/08/29 04:15:25;;;;;;;3.63;3.33;;;;;;;13.78;91.37;95582.50;5015800;28;20210;-83
2021/08/29 04:17:54;;;;;;;3.27;3.07;;;;;;;13.85;90.91;95582.50;5014943;28;20209;-83
2021/08/29 04:20:21;;;;;;;3.90;3.60;;;;;;;13.83;91.20;95587.88;5015258;28;20227;-84
2021/08/29 04:22:47;;;;;;;3.70;3.30;;;;;;;13.83;91.27;95587.88;5015947;28;20223;-85
2021/08/29 04:25:16;;;;;;;3.93;3.63;;;;;;;13.88;90.95;95588.06;5014956;28;20283;-83
2021/08/29 04:27:43;;;;;;;3.63;3.33;;;;;;;13.85;91.26;95588.50;5016300;28;20230;-83
2021/08/29 04:30:11;;;;;;;3.73;3.43;;;;;;;13.85;91.56;95587.69;5015138;28;20222;-84
2021/08/29 04:32:39;;;;;;;3.73;3.43;;;;;;;13.90;90.83;95595.66;5015854;28;20210;-84
2021/08/29 04:35:07;;;;;;;4.10;3.80;;;;;;;13.90;91.65;95599.03;5016927;28;20203;-84
2021/08/29 04:37:33;;;;;;;4.13;3.43;;;;;;;13.93;90.92;95597.84;5016660;28;20226;-83
2021/08/29 04:40:01;;;;;;;4.40;4.00;;;;;;;13.98;91.02;95600.66;5016009;28;20219;-84
2021/08/29 04:42:34;;;;;;;4.10;3.70;;;;;;;14.02;90.85;95601.84;5016027;28;20737;-83
2021/08/29 04:45:01;;;;;;;4.10;3.70;;;;;;;13.99;91.27;95607.41;5015592;28;20199;-83
2021/08/29 04:47:29;;;;;;;4.10;3.80;;;;;;;13.98;91.15;95606.63;5015840;28;20261;-83
2021/08/29 04:49:56;;;;;;;4.47;4.13;;;;;;;13.99;91.21;95610.81;5014367;28;20211;-83
2021/08/29 04:52:23;;;;;;;4.13;3.83;;;;;;;13.95;91.72;95607.00;5015233;28;20881;-83
2021/08/29 04:54:49;;;;;;;4.60;4.13;;;;;;;13.99;91.38;95610.00;5016343;28;20207;-83
2021/08/29 04:57:16;;;;;;;4.93;4.50;;;;;;;13.99;91.41;95605.63;5016628;28;20205;-85
2021/08/29 04:59:43;;;;;;;5.00;4.50;;;;;;;14.00;91.46;95603.84;5014973;28;20259;-84
2021/08/29 05:02:12;;;;;;;5.63;4.20;;;;;;;13.98;91.30;95603.25;5014811;28;20226;-84
2021/08/29 05:04:38;;;;;;;5.00;4.60;;;;;;;13.93;91.83;95601.22;5013990;28;20456;-84
2021/08/29 05:07:05;;;;;;;4.70;4.30;;;;;;;13.96;91.97;95602.63;5015676;28;20222;-84
2021/08/29 05:09:35;;;;;;;5.27;4.77;;;;;;;13.94;92.20;95608.00;5014706;28;20210;-83
2021/08/29 05:12:10;;;;;;;5.07;4.57;;;;;;;13.95;92.31;95596.66;5017068;28;20210;-83
2021/08/29 05:17:47;;;;;;;5.00;4.60;;;;;;;14.01;92.56;95600.25;4957455;28;20216;-83
2021/08/29 05:28:07;;;;;;;4.80;4.30;;;;;;;14.17;92.98;95595.50;4938431;28;20223;-84
2021/08/29 05:30:58;;;;;;;5.73;5.10;;;;;;;14.16;91.99;95593.91;4994202;28;20890;-82
2021/08/29 05:33:31;;;;;;;4.97;4.57;;;;;;;14.20;92.45;95609.03;4998337;28;20215;-84
2021/08/29 05:35:59;;;;;;;5.57;5.07;;;;;;;14.11;92.10;95601.47;4997867;28;20203;-83
2021/08/29 05:38:27;;;;;;;6.07;5.10;;;;;;;14.11;92.32;95604.03;5005928;28;20285;-82
2021/08/29 05:40:55;;;;;;;5.37;4.87;;;;;;;14.12;93.38;95608.22;5014681;28;20230;-83
2021/08/29 05:43:37;;;;;;;;;;;;;;;;;;;;;
2021/08/29 05:49:12;;;;;;;5.73;5.13;;;;;;;14.06;92.91;95608.22;4860850;28;20708;-84
2021/08/29 05:51:58;;;;;;;5.83;5.20;;;;;;;14.08;93.43;95609.63;4961297;28;20232;-84
2021/08/29 05:54:36;;;;;;;5.97;5.47;;;;;;;14.09;92.87;95608.63;4970950;28;20594;-84
2021/08/29 05:57:25;;;;;;;5.50;5.03;;;;;;;14.10;92.90;95602.44;4985187;28;20207;-88
2021/08/29 06:00:19;;;;;;;6.07;5.47;;;;;;;14.08;94.15;95609.63;4994623;28;20290;-84
2021/08/29 06:06:50;;;;;;;8.20;5.10;;;;;;;14.32;92.74;95604.84;4873406;29;20222;-85
2021/08/29 06:09:47;;;;;;;5.03;4.60;;;;;;;14.41;91.82;95604.50;4842397;29;20285;-82
2021/08/29 06:12:14;;;;;;;6.77;5.73;;;;;;;14.32;91.62;95607.44;4913500;29;20646;-82
2021/08/29 06:14:43;;;;;;;6.13;5.53;;;;;;;14.31;91.69;95603.25;4912253;29;20244;-83
2021/08/29 06:17:10;;;;;;;5.73;5.23;;;;;;;14.27;91.73;95605.44;4942970;28;20200;-84
2021/08/29 06:19:36;;;;;;;6.30;5.70;;;;;;;14.27;92.28;95605.44;4973675;28;20714;-81
2021/08/29 06:22:03;;;;;;;6.10;5.53;;;;;;;14.23;92.84;95600.88;4973232;28;20227;-83
2021/08/29 06:24:30;;;;;;;6.30;5.67;;;;;;;14.20;93.26;95599.47;4972887;28;20212;-83
2021/08/29 06:26:58;;;;;;;5.90;5.40;;;;;;;14.21;92.81;95595.91;4973116;28;20694;-82
2021/08/29 06:29:38;;;;;;;7.23;6.50;;;;;;;14.16;93.29;95593.91;4972004;28;20208;-85
2021/08/29 06:32:07;;;;;;;6.40;5.80;;;;;;;14.20;92.87;95596.91;4971540;28;20223;-83
2021/08/29 06:34:43;;;;;;;6.67;6.07;;;;;;;14.25;93.79;95602.25;4989903;28;20211;-83
2021/08/29 06:37:36;;;;;;;6.43;5.83;;;;;;;14.22;93.45;95594.91;4990139;28;20199;-84
2021/08/29 06:40:08;;;;;;;7.43;6.40;;;;;;;14.23;93.36;95595.69;4990812;28;20223;-84
2021/08/29 06:42:41;;;;;;;6.73;6.13;;;;;;;14.23;93.71;95593.13;4990484;28;20250;-84
2021/08/29 06:46:04;;;;;;;6.23;5.63;;;;;;;14.22;95.06;95597.50;4989895;28;20666;-85
2021/08/29 06:48:40;;;;;;;6.40;5.80;;;;;;;14.21;94.83;95601.09;4930370;29;20221;-84
2021/08/29 06:51:26;;;;;;;8.20;6.70;;;;;;;14.13;95.64;95604.66;4992316;28;20255;-81
2021/08/29 06:54:08;;;;;;;7.17;6.47;;;;;;;14.12;94.78;95597.06;4991655;28;20214;-84
2021/08/29 06:56:34;;;;;;;6.20;5.60;;;;;;;14.11;95.02;95605.84;4994976;28;20231;-84
2021/08/29 06:59:02;;;;;;;6.83;6.23;;;;;;;14.13;95.06;95603.84;4995177;28;20195;-83
2021/08/29 07:01:38;;;;;;;6.93;6.33;;;;;;;14.13;95.48;95609.03;4997576;28;20749;-84
2021/08/29 07:04:09;;;;;;;6.47;5.87;;;;;;;14.12;95.41;95595.28;4993251;28;20219;-83
2021/08/29 07:13:52;;;;;;;6.07;5.47;;;;;;;14.23;96.41;95601.69;4932627;28;20214;-82
2021/08/29 07:16:22;;;;;;;6.67;6.07;;;;;;;14.20;96.90;95598.69;5010149;28;20286;-82
2021/08/29 07:32:38;;;;;;;6.30;5.10;;;;;;;14.43;95.41;95599.91;4921832;28;20217;-83
2021/08/29 07:35:08;;;;;;;4.93;4.50;;;;;;;14.40;94.84;95608.09;4987952;28;20207;-82
2021/08/29 07:37:35;;;;;;;4.90;4.50;;;;;;;14.36;94.25;95604.25;4972281;28;20288;-83
2021/08/29 07:40:04;;;;;;;5.30;4.80;;;;;;;14.37;94.96;95605.88;4990951;28;20309;-84
2021/08/29 07:42:33;;;;;;;4.13;3.83;;;;;;;14.40;94.59;95602.91;5002202;28;20309;-84
2021/08/29 07:45:02;;;;;;;4.33;3.93;;;;;;;14.46;93.60;95606.47;4999103;28;20207;-82
2021/08/29 07:47:32;;;;;;;3.83;3.50;;;;;;;14.54;93.63;95606.28;5002493;28;20654;-83
2021/08/29 07:50:03;;;;;;;4.33;3.93;;;;;;;14.56;94.78;95604.28;4974089;28;20236;-84
2021/08/29 07:52:33;;;;;;;4.00;3.70;;;;;;;14.58;94.23;95599.72;4993291;28;20203;-82
2021/08/29 07:55:07;;;;;;;4.60;3.73;;;;;;;14.67;94.02;95601.09;5011521;28;20194;-80
2021/08/29 07:57:37;;;;;;;3.30;3.10;;;;;;;14.70;94.17;95600.69;5004718;28;20213;-84
2021/08/29 08:00:05;;;;;;;3.20;3.00;;;;;;;14.59;93.02;95608.28;4994895;28;20311;-83
2021/08/29 08:02:32;;;;;;;3.17;2.97;;;;;;;14.61;93.26;95607.09;5001549;28;20318;-84
2021/08/29 08:05:00;;;;;;;5.80;5.30;;;;;;;14.61;93.41;95608.88;4998741;28;20238;-81
2021/08/29 08:07:49;;;;;;;3.80;3.50;;;;;;;14.57;92.90;95611.06;4998172;28;20270;-91
2021/08/29 08:10:16;;;;;;;3.77;3.47;;;;;;;14.64;93.93;95611.03;5002234;28;20701;-84
2021/08/29 08:12:43;;;;;;;4.00;3.70;;;;;;;14.68;94.93;95609.66;5009247;28;20668;-82
2021/08/29 08:15:11;;;;;;;3.73;3.43;;;;;;;14.74;93.61;95607.06;5005536;28;20199;-81
2021/08/29 08:17:43;;;;;;;3.60;3.30;;;;;;;14.80;92.84;95606.28;5010182;28;20835;-85
2021/08/29 08:23:48;;;;;;;3.83;3.53;;;;;;;14.82;93.43;95624.97;4998198;28;20705;-84
2021/08/29 08:26:56;;;;;;;3.40;3.20;;;;;;;14.81;92.84;95613.06;5006221;28;20214;-85
2021/08/29 08:29:40;;;;;;;3.87;3.57;;;;;;;14.80;93.38;95613.25;5015084;23;20218;-85
2021/08/29 08:32:16;;;;;;;4.30;3.90;;;;;;;14.73;93.68;95604.69;5008176;28;20228;-87
2021/08/29 08:34:43;;;;;;;4.53;4.13;;;;;;;14.69;94.01;95609.47;5003602;28;20764;-84
2021/08/29 08:37:46;;;;;;;4.30;3.90;;;;;;;14.65;94.29;95600.47;5005611;28;20215;-82
2021/08/29 08:43:36;;;;;;;9.10;4.10;;;;;;;14.82;95.07;95609.44;4987510;28;20329;-84
2021/08/29 08:46:30;;;;;;;4.80;4.40;;;;;;;14.95;95.83;95616.41;4968184;28;20199;-84
2021/08/29 08:49:16;;;;;;;4.60;4.20;;;;;;;15.06;94.91;95615.78;4965126;28;20228;-86
2021/08/29 08:51:56;;;;;;;4.87;4.43;;;;;;;15.09;94.35;95612.78;4985888;28;20764;-84
2021/08/29 08:54:28;;;;;;;4.47;4.07;;;;;;;15.25;93.29;95613.31;4992234;28;20707;-85
2021/08/29 08:57:26;;;;;;;4.78;4.38;;;;;;;15.44;91.71;95609.88;4992003;28;20200;-85
2021/08/29 09:00:17;;;;;;;5.00;4.60;;;;;;;15.43;88.53;95605.69;4988887;28;20228;-86
2021/08/29 09:03:18;;;;;;;7.35;6.65;;;;;;;15.45;89.19;95607.06;4991977;28;20234;-85
2021/08/29 09:05:45;;;;;;;4.63;4.22;;;;;;;15.41;88.93;95603.28;4978571;28;20281;-85
2021/08/29 09:08:12;;;;;;;4.43;3.92;;;;;;;15.36;88.88;95602.34;4999680;28;20206;-82
2021/08/29 09:10:38;;;;;;;4.30;4.00;;;;;;;15.36;89.42;95604.94;5003519;28;20230;-85
2021/08/29 09:13:07;;;;;;;4.38;4.00;;;;;;;15.29;89.32;95604.13;5001552;28;20203;-85
2021/08/29 09:15:37;;;;;;;4.18;3.88;;;;;;;15.26;88.66;95601.94;4991389;28;20283;-86
2021/08/29 09:18:03;;;;;;;29.20;26.05;;;;;;;15.37;89.54;95596.13;5001808;28;20717;-84
2021/08/29 09:20:40;;;;;;;8.27;7.55;;;;;;;15.48;88.38;95598.88;5011770;28;20238;-84
2021/08/29 09:23:13;;;;;;;7.80;7.10;;;;;;;15.56;86.93;95589.31;5003431;28;20214;-84
2021/08/29 09:26:04;;;;;;;5.80;5.30;;;;;;;15.54;88.05;95590.28;5003684;28;20200;-85
2021/08/29 09:28:41;;;;;;;6.20;5.60;;;;;;;15.57;87.08;95612.47;4960268;28;20207;-84
2021/08/29 09:31:08;;;;;;;5.22;4.82;;;;;;;15.59;88.07;95596.69;5000843;28;20565;-86
2021/08/29 09:33:39;;;;;;;5.60;5.20;;;;;;;15.58;90.05;95597.69;4991467;28;20195;-85
2021/08/29 09:36:06;;;;;;;5.13;4.72;;;;;;;15.50;88.31;95601.25;4992409;28;20211;-87
2021/08/29 09:38:40;;;;;;;5.45;5.00;;;;;;;15.43;88.15;95598.69;4981104;28;20671;-86
2021/08/29 09:41:23;;;;;;;12.13;11.02;;;;;;;15.44;87.60;95599.47;4973457;28;20235;-87
2021/08/29 09:43:52;;;;;;;17.80;16.10;;;;;;;15.44;87.91;95602.09;4979871;28;20230;-86
2021/08/29 09:46:23;;;;;;;9.25;8.35;;;;;;;15.49;88.78;95602.25;4990587;28;20700;-85
2021/08/29 09:48:50;;;;;;;7.20;6.50;;;;;;;15.56;88.65;95594.50;5001391;28;20222;-86
2021/08/29 09:52:06;;;;;;;6.15;5.57;;;;;;;15.66;88.06;95587.84;4992918;28;20293;-85
2021/08/29 09:54:53;;;;;;;5.13;4.72;;;;;;;15.67;87.36;95594.63;4988549;28;20215;-85
2021/08/29 10:04:00;;;;;;;4.72;4.32;;;;;;;15.60;84.48;95583.47;4989166;28;20702;-85
2021/08/29 10:06:31;;;;;;;4.95;4.55;;;;;;;15.68;84.16;95579.84;4989946;28;20227;-86
2021/08/29 10:09:24;;;;;;;4.68;4.28;;;;;;;15.72;83.82;95586.22;4990886;28;20238;-84
2021/08/29 10:11:58;;;;;;;4.10;3.80;;;;;;;15.72;84.30;95581.03;4991420;28;20207;-85
2021/08/29 10:14:30;;;;;;;4.90;3.67;;;;;;;15.84;83.88;95572.34;4990069;28;20199;-85
2021/08/29 10:16:59;;;;;;;4.10;3.80;;;;;;;15.88;83.35;95573.53;4990338;28;20207;-85
2021/08/29 10:19:31;;;;;;;4.15;3.85;;;;;;;15.98;82.07;95580.06;4990834;28;20224;-84
2021/08/29 10:22:28;;;;;;;3.90;3.60;;;;;;;16.06;80.98;95572.81;4990181;28;20199;-86
2021/08/29 10:24:54;;;;;;;3.70;3.40;;;;;;;16.23;80.64;95568.69;4980968;28;20242;-86
2021/08/29 10:27:34;;;;;;;3.15;2.95;;;;;;;16.31;80.15;95570.25;4991224;28;20204;-86
2021/08/29 10:30:13;;;;;;;3.13;2.83;;;;;;;16.33;78.23;95567.44;4993138;28;20351;-87
2021/08/29 10:32:45;;;;;;;3.28;2.97;;;;;;;16.34;76.56;95566.44;4991803;28;20201;-86
2021/08/29 10:35:14;;;;;;;2.90;2.70;;;;;;;16.49;77.70;95569.50;4991873;28;20661;-85
2021/08/29 10:37:43;;;;;;;2.70;2.50;;;;;;;16.70;74.81;95573.53;4992248;28;20227;-84
2021/08/29 10:40:15;;;;;;;2.90;2.70;;;;;;;16.67;73.71;95568.75;4992805;28;20226;-86
2021/08/29 10:42:45;;;;;;;2.67;2.47;;;;;;;16.64;74.39;95566.59;4992800;28;20262;-86
2021/08/29 10:45:13;;;;;;;2.30;2.20;;;;;;;16.58;74.59;95566.41;4991132;28;20230;-85
2021/08/29 10:51:01;;;;;;;2.38;2.20;;;;;;;16.64;75.05;95559.59;4932410;29;20237;-87
2021/08/29 10:54:02;;;;;;;;;;;;;;;;;;;;;
2021/08/29 10:57:08;;;;;;;2.35;2.15;;;;;;;17.08;74.03;95555.13;4991731;28;20357;-85
2021/08/29 10:59:35;;;;;;;1.75;1.65;;;;;;;17.39;72.95;95552.34;5085039;23;20223;-86
2021/08/29 11:04:54;;;;;;;2.08;1.88;;;;;;;17.49;71.31;95547.44;4981491;28;20227;-86
2021/08/29 11:08:00;;;;;;;1.90;1.80;;;;;;;17.41;71.19;95545.13;4976325;28;20255;-86
2021/08/29 11:11:16;;;;;;;;;;;;;;;;;;;;;
2021/08/29 11:14:06;;;;;;;2.00;1.90;;;;;;;17.31;69.16;95536.25;4991828;28;20203;-85
2021/08/29 11:20:00;;;;;;;1.48;1.38;;;;;;;17.20;69.01;95543.78;4981835;28;20281;-85
2021/08/29 11:22:42;;;;;;;1.50;1.40;;;;;;;17.17;67.70;95533.78;5012053;28;20213;-84
2021/08/29 11:25:42;;;;;;;1.60;1.50;;;;;;;17.16;66.40;95534.00;5009346;28;20273;-84
2021/08/29 11:31:39;;;;;;;1.55;1.45;;;;;;;17.06;68.34;95534.53;5059200;23;20654;-86
2021/08/29 11:34:26;;;;;;;;;;;;;;;;;;;;;
2021/08/29 11:37:22;;;;;;;1.60;1.50;;;;;;;17.00;70.35;95542.41;5010994;28;20289;-85
2021/08/29 11:43:45;;;;;;;1.80;1.70;;;;;;;16.50;75.49;95537.28;4969331;28;20236;-86
2021/08/29 11:46:18;;;;;;;1.80;1.70;;;;;;;16.37;77.43;95538.19;4970364;28;20288;-83
2021/08/29 11:49:04;;;;;;;1.73;1.60;;;;;;;16.26;80.31;95543.28;5006557;28;20225;-84
2021/08/29 11:52:17;;;;;;;2.25;2.05;;;;;;;16.12;82.90;95548.59;5012883;28;20249;-86
2021/08/29 11:55:32;;;;;;;2.50;2.30;;;;;;;16.02;84.37;95550.06;4949236;28;20210;-85
2021/08/29 11:57:58;;;;;;;3.08;2.88;;;;;;;15.98;85.22;95551.50;5010068;28;20226;-84
2021/08/29 12:00:32;;;;;;;2.50;2.30;;;;;;;15.96;86.39;95536.16;5006063;28;21000;-86
2021/08/29 12:02:59;;;;;;;2.88;2.67;;;;;;;16.01;87.34;95541.47;4990323;28;20210;-85
2021/08/29 12:08:15;;;;;;;2.83;2.58;;;;;;;16.15;88.86;95531.81;4991129;28;20211;-84
2021/08/29 12:10:49;;;;;;;2.63;2.42;;;;;;;16.24;86.77;95525.31;5010796;28;20302;-85
2021/08/29 12:13:42;;;;;;;2.40;2.20;;;;;;;16.31;87.10;95523.47;5011182;28;20260;-86
2021/08/29 12:16:19;;;;;;;2.60;2.40;;;;;;;16.34;88.20;95517.06;4997194;28;20199;-86
2021/08/29 12:18:54;;;;;;;2.20;2.10;;;;;;;16.43;87.81;95508.75;5009358;28;20206;-84
2021/08/29 12:21:42;;;;;;;3.40;2.95;;;;;;;16.53;88.15;95516.88;5000491;28;20202;-85
2021/08/29 12:24:23;;;;;;;2.78;2.58;;;;;;;16.48;88.75;95516.72;4990790;28;20219;-85
2021/08/29 12:27:14;;;;;;;2.75;2.55;;;;;;;16.51;90.00;95510.28;4993631;28;20294;-84
2021/08/29 12:29:46;;;;;;;2.30;2.10;;;;;;;16.61;88.00;95507.97;4985493;28;20366;-85
2021/08/29 12:32:17;;;;;;;2.60;2.40;;;;;;;16.62;87.38;95512.16;4998027;28;20281;-84
2021/08/29 12:34:43;;;;;;;2.47;2.28;;;;;;;16.65;85.00;95508.38;4993331;28;20828;-85
2021/08/29 12:37:12;;;;;;;2.60;2.40;;;;;;;16.65;86.29;95501.38;4992857;28;20303;-86
2021/08/29 12:39:42;;;;;;;2.90;2.70;;;;;;;16.67;84.93;95501.97;4993230;28;20646;-84
2021/08/29 12:42:19;;;;;;;2.60;2.40;;;;;;;16.92;87.85;95501.91;5004909;28;20199;-84
2021/08/29 12:44:47;;;;;;;1.92;1.83;;;;;;;17.12;86.92;95499.06;4992394;28;20704;-86
2021/08/29 12:47:23;;;;;;;2.22;2.13;;;;;;;17.17;85.31;95486.97;4992038;28;20810;-86
2021/08/29 12:49:51;;;;;;;2.40;2.20;;;;;;;17.27;82.21;95492.44;4993092;28;20242;-85
2021/08/29 12:52:21;;;;;;;2.83;1.80;;;;;;;17.33;82.09;95484.75;4993568;28;20211;-84
2021/08/29 12:54:48;;;;;;;1.90;1.80;;;;;;;17.33;83.22;95490.75;4993053;28;20199;-83
2021/08/29 12:57:15;;;;;;;3.50;2.05;;;;;;;17.29;81.80;95494.84;4991792;28;20602;-85
2021/08/29 12:59:42;;;;;;;1.80;1.70;;;;;;;17.31;81.52;95503.22;4992703;28;20230;-84
2021/08/29 13:02:19;;;;;;;2.20;2.00;;;;;;;17.27;82.14;95496.84;5010647;28;20580;-83
2021/08/29 13:04:47;;;;;;;2.00;1.90;;;;;;;17.08;82.82;95488.28;5012283;28;20218;-84
2021/08/29 13:07:15;;;;;;;2.20;2.00;;;;;;;17.06;83.64;95492.91;5012491;28;20234;-83
2021/08/29 13:09:49;;;;;;;1.90;1.80;;;;;;;17.01;84.58;95495.38;5012761;28;20230;-86
2021/08/29 13:12:24;;;;;;;1.70;1.60;;;;;;;16.96;82.15;95492.63;5012041;28;20691;-85
2021/08/29 13:14:51;;;;;;;1.85;1.75;;;;;;;16.77;82.13;95484.03;5012659;28;20208;-87
2021/08/29 13:17:21;;;;;;;3.05;1.73;;;;;;;16.80;82.22;95485.41;5012017;28;20210;-84
2021/08/29 13:20:08;;;;;;;1.80;1.70;;;;;;;16.75;81.86;95483.47;5012624;28;20280;-85
2021/08/29 13:22:38;;;;;;;1.40;1.30;;;;;;;16.69;77.87;95473.16;5003215;28;21027;-86
2021/08/29 13:25:29;;;;;;;1.30;1.20;;;;;;;16.71;74.92;95477.13;4992089;28;20219;-84
2021/08/29 13:27:57;;;;;;;4.18;1.80;;;;;;;16.79;77.24;95474.22;4991432;28;20231;-87
2021/08/29 13:30:28;;;;;;;1.30;1.20;;;;;;;16.89;75.13;95482.31;4991480;28;20266;-85
2021/08/29 13:33:35;;;;;;;1.13;1.05;;;;;;;16.94;73.60;95479.03;4998183;28;20198;-85
2021/08/29 13:39:19;;;;;;;1.27;1.13;;;;;;;16.89;71.48;95471.13;5005094;28;20234;-86
2021/08/29 13:42:07;;;;;;;1.23;1.10;;;;;;;16.91;71.85;95471.69;5011868;28;20218;-86
2021/08/29 13:48:06;;;;;;;1.10;1.10;;;;;;;17.01;71.02;95466.75;5008797;28;20215;-85
2021/08/29 13:50:36;;;;;;;1.10;1.10;;;;;;;17.06;69.44;95468.72;5011795;28;20309;-86
2021/08/29 13:53:39;;;;;;;;;;;;;;;;;;;;;